Aérodrome :
LOGIN :

S'inscrire | Disclaimer

   EN    FR    IT 

 










Légende :    VFR   VFR Marginal   IFR   IFR Intensif   IFR Très Intensif
Visi : 
Plafond : 
>= 8 km
>= 3000ft
5 à 8 km
1000 à 3000 ft
1500m à 5 km
500 à 1000 ft
800 à 1500m
200 à 500 ft
< 800m
< 200 ft
Symboles :   Orages  Brouillard  Fortes neiges  Fortes précipitations  Vent > 20 kt
SIGMETs :   Divers  Orages  Givrage  Turbulence  Onde Orograph.  Cendres Volcan.







- Altitude de l'aérodrome : 13 ft
- Code IATA : SNR
- Voir les cartes d'approche


LFRZ - St-Nazaire

DERNIER METAR :
  • 251830Z AUTO 31003KT 9999 FEW024 SCT100 BKN160 20/14 Q1014 TEMPO SHRA BKN040CB

METARs EXPIRÉS :
  • 251800Z AUTO 27005KT 9999 FEW025 OVC092 20/14 Q1015 TEMPO SHRA BKN040CB
  • 251730Z AUTO 23002KT CAVOK 20/15 Q1014 TEMPO SHRA BKN040CB
  • 251700Z AUTO 22004KT 9999 FEW022 BKN090 BKN190 20/14 Q1014 TEMPO VRB15G25KT 4000 SHRA BKN040CB
  • 251630Z AUTO 21004KT 180V240 CAVOK 21/16 Q1014 TEMPO VRB15G25KT 4000 SHRA BKN040CB
  • 251600Z AUTO 19004KT 170V230 9999 FEW019 SCT080 BKN098 20/16 Q1015 TEMPO VRB15G25KT 2000 TSRA BKN030CB
  • 251530Z AUTO 14005KT CAVOK 21/16 Q1015 TEMPO VRB15G25KT 2000 TSRA BKN030CB

TAF TAF LFRZ
Valide du 25 à 18h jusqu'au 26 à 18h UTC


251700Z 2518/2618 VRB04KT 9999 SCT020 BKN080
TEMPO 2518/2618 SHRA BKN040CB
PROB30
TEMPO 2600/2609 VRB15G25KT 3000 TSRA BKN008 BKN030CB
PROB30
TEMPO 2612/2618 3000 TSRA BKN030CB
Pas de NOTAMs connus pour ce terrain.
1 SIGMET publié pour la FIR Brest (LFRR) :
 
Orages noyés dans la masse
LFRR SIGMET 9 VALID 251700/251900 LFPW
LFRR BREST FIR/UIR EMBD TS OBS WI N4915 W00015 - N4815 W00015 - N4800 W00130 - N4845 W00130 - N4915 W00015 TOP FL390 STNR NC=



MET'MAP, la Météo Aéronautique d'un coup d'oeil ! - Copyright ORBIFLY Décembre 2007 - Disclaimer

ORBIFLY MET'MAP TEAM :

Programmation & Développement : Alexandra Zaïnal
Conception & Développement : Baudouin d'Aumeries
Co-Programmation & Développement : Marc-Olivier Méhu
Soutien technique & logistique : Manuel Goepfert

Contact : metmap@orbifly.com




SOURCES & CREDITS :

   NOAA